sensor_id;sensor_type;location;lat;lon;timestamp;pressure;altitude;pressure_sealevel;temperature;humidity
57024;BME280;42916;54.346;18.562;2022-08-05T00:02:12;100380.48;;;22.81;56.69
57024;BME280;42916;54.346;18.562;2022-08-05T00:04:39;100375.20;;;22.80;56.54
57024;BME280;42916;54.346;18.562;2022-08-05T00:07:06;100371.45;;;22.79;56.43
57024;BME280;42916;54.346;18.562;2022-08-05T00:09:32;100376.16;;;22.78;56.39
57024;BME280;42916;54.346;18.562;2022-08-05T00:11:59;100373.75;;;22.77;56.38
57024;BME280;42916;54.346;18.562;2022-08-05T00:14:25;100367.43;;;22.75;56.29
57024;BME280;42916;54.346;18.562;2022-08-05T00:16:52;100367.70;;;22.74;56.42
57024;BME280;42916;54.346;18.562;2022-08-05T00:19:19;100361.71;;;22.73;56.32
57024;BME280;42916;54.346;18.562;2022-08-05T00:21:46;100368.54;;;22.71;56.25
57024;BME280;42916;54.346;18.562;2022-08-05T00:24:12;100366.95;;;22.69;56.28
57024;BME280;42916;54.346;18.562;2022-08-05T00:26:39;100366.42;;;22.67;56.29
57024;BME280;42916;54.346;18.562;2022-08-05T00:29:05;100367.15;;;22.66;56.31
57024;BME280;42916;54.346;18.562;2022-08-05T00:31:32;100364.55;;;22.64;56.24
57024;BME280;42916;54.346;18.562;2022-08-05T00:33:58;100361.61;;;22.62;56.30
57024;BME280;42916;54.346;18.562;2022-08-05T00:36:25;100362.79;;;22.60;56.39
57024;BME280;42916;54.346;18.562;2022-08-05T00:38:52;100360.95;;;22.57;56.32
57024;BME280;42916;54.346;18.562;2022-08-05T00:41:32;100358.81;;;22.53;56.45
57024;BME280;42916;54.346;18.562;2022-08-05T00:43:59;100363.44;;;22.49;56.51
57024;BME280;42916;54.346;18.562;2022-08-05T00:46:26;100357.41;;;22.45;56.61
57024;BME280;42916;54.346;18.562;2022-08-05T00:48:52;100359.33;;;22.41;56.74
57024;BME280;42916;54.346;18.562;2022-08-05T00:51:19;100356.70;;;22.37;56.78
57024;BME280;42916;54.346;18.562;2022-08-05T00:53:47;100354.30;;;22.30;57.06
57024;BME280;42916;54.346;18.562;2022-08-05T00:56:15;100355.73;;;22.23;57.23
57024;BME280;42916;54.346;18.562;2022-08-05T00:58:42;100358.69;;;22.13;57.58
57024;BME280;42916;54.346;18.562;2022-08-05T01:01:10;100359.02;;;22.05;57.86
57024;BME280;42916;54.346;18.562;2022-08-05T01:03:38;100358.39;;;21.93;58.22
57024;BME280;42916;54.346;18.562;2022-08-05T01:06:05;100357.80;;;21.80;58.69
57024;BME280;42916;54.346;18.562;2022-08-05T01:08:33;100358.20;;;21.71;59.07
57024;BME280;42916;54.346;18.562;2022-08-05T01:11:06;100357.88;;;21.61;59.43
57024;BME280;42916;54.346;18.562;2022-08-05T01:13:48;100360.02;;;21.52;60.06
57024;BME280;42916;54.346;18.562;2022-08-05T01:16:29;100361.05;;;21.41;60.44
57024;BME280;42916;54.346;18.562;2022-08-05T01:19:09;100362.05;;;21.32;60.93
57024;BME280;42916;54.346;18.562;2022-08-05T01:30:27;100348.79;;;20.93;62.62
57024;BME280;42916;54.346;18.562;2022-08-05T01:32:55;100343.73;;;20.85;63.08
57024;BME280;42916;54.346;18.562;2022-08-05T01:35:26;100344.94;;;20.80;63.41
57024;BME280;42916;54.346;18.562;2022-08-05T01:37:55;100342.92;;;20.76;63.82
57024;BME280;42916;54.346;18.562;2022-08-05T01:40:26;100340.22;;;20.70;64.07
57024;BME280;42916;54.346;18.562;2022-08-05T01:42:56;100338.65;;;20.66;64.29
57024;BME280;42916;54.346;18.562;2022-08-05T01:45:25;100336.48;;;20.58;64.55
57024;BME280;42916;54.346;18.562;2022-08-05T01:47:52;100334.52;;;20.48;64.84
57024;BME280;42916;54.346;18.562;2022-08-05T01:50:29;100330.98;;;20.42;65.32
57024;BME280;42916;54.346;18.562;2022-08-05T01:53:01;100333.92;;;20.36;65.56
57024;BME280;42916;54.346;18.562;2022-08-05T01:55:30;100337.31;;;20.27;65.83
57024;BME280;42916;54.346;18.562;2022-08-05T01:57:58;100335.16;;;20.20;66.20
57024;BME280;42916;54.346;18.562;2022-08-05T02:00:26;100331.89;;;20.12;66.63
57024;BME280;42916;54.346;18.562;2022-08-05T02:02:55;100334.10;;;20.09;66.98
57024;BME280;42916;54.346;18.562;2022-08-05T02:05:27;100329.58;;;20.05;67.35
57024;BME280;42916;54.346;18.562;2022-08-05T02:07:57;100328.98;;;20.03;67.60
57024;BME280;42916;54.346;18.562;2022-08-05T02:10:31;100322.95;;;19.99;67.85
57024;BME280;42916;54.346;18.562;2022-08-05T02:13:10;100324.59;;;19.97;68.10
57024;BME280;42916;54.346;18.562;2022-08-05T02:15:56;100322.04;;;19.94;68.37
57024;BME280;42916;54.346;18.562;2022-08-05T02:18:32;100325.08;;;19.92;68.62
57024;BME280;42916;54.346;18.562;2022-08-05T02:23:58;100322.80;;;19.89;68.82
57024;BME280;42916;54.346;18.562;2022-08-05T02:26:36;100319.71;;;19.87;68.98
57024;BME280;42916;54.346;18.562;2022-08-05T02:29:06;100320.68;;;19.84;69.13
57024;BME280;42916;54.346;18.562;2022-08-05T02:31:34;100318.20;;;19.80;69.07
57024;BME280;42916;54.346;18.562;2022-08-05T02:34:12;100321.59;;;19.77;69.46
57024;BME280;42916;54.346;18.562;2022-08-05T02:36:43;100321.80;;;19.77;69.49
57024;BME280;42916;54.346;18.562;2022-08-05T02:39:15;100319.67;;;19.77;69.61
57024;BME280;42916;54.346;18.562;2022-08-05T02:41:45;100318.41;;;19.78;69.86
57024;BME280;42916;54.346;18.562;2022-08-05T02:44:12;100321.31;;;19.81;69.83
57024;BME280;42916;54.346;18.562;2022-08-05T02:46:42;100321.69;;;19.84;70.03
57024;BME280;42916;54.346;18.562;2022-08-05T02:49:11;100319.28;;;19.86;69.98
57024;BME280;42916;54.346;18.562;2022-08-05T02:51:40;100318.31;;;19.87;69.93
57024;BME280;42916;54.346;18.562;2022-08-05T02:54:08;100312.83;;;19.88;69.84
57024;BME280;42916;54.346;18.562;2022-08-05T02:56:36;100316.38;;;19.90;69.88
57024;BME280;42916;54.346;18.562;2022-08-05T02:59:03;100314.84;;;19.91;69.88
57024;BME280;42916;54.346;18.562;2022-08-05T03:01:32;100316.22;;;19.91;69.89
57024;BME280;42916;54.346;18.562;2022-08-05T03:04:02;100314.50;;;19.91;69.89
57024;BME280;42916;54.346;18.562;2022-08-05T03:06:30;100311.50;;;19.92;69.84
57024;BME280;42916;54.346;18.562;2022-08-05T03:08:57;100311.02;;;19.91;69.75
57024;BME280;42916;54.346;18.562;2022-08-05T03:11:25;100305.96;;;19.93;69.80
57024;BME280;42916;54.346;18.562;2022-08-05T03:13:52;100303.16;;;19.94;69.66
57024;BME280;42916;54.346;18.562;2022-08-05T03:16:20;100304.11;;;19.96;69.77
57024;BME280;42916;54.346;18.562;2022-08-05T03:18:47;100302.88;;;19.97;69.75
57024;BME280;42916;54.346;18.562;2022-08-05T03:21:13;100302.67;;;19.98;69.67
57024;BME280;42916;54.346;18.562;2022-08-05T03:23:42;100304.61;;;19.98;69.71
57024;BME280;42916;54.346;18.562;2022-08-05T03:26:09;100305.13;;;19.97;69.70
57024;BME280;42916;54.346;18.562;2022-08-05T03:28:36;100301.33;;;19.97;69.66
57024;BME280;42916;54.346;18.562;2022-08-05T03:31:04;100301.38;;;19.96;69.68
57024;BME280;42916;54.346;18.562;2022-08-05T03:33:31;100304.73;;;19.95;69.51
57024;BME280;42916;54.346;18.562;2022-08-05T03:35:58;100301.65;;;19.95;69.66
57024;BME280;42916;54.346;18.562;2022-08-05T03:38:25;100307.16;;;19.95;69.70
57024;BME280;42916;54.346;18.562;2022-08-05T03:40:52;100303.72;;;19.96;69.54
57024;BME280;42916;54.346;18.562;2022-08-05T03:43:19;100298.20;;;19.98;69.55
57024;BME280;42916;54.346;18.562;2022-08-05T03:45:46;100300.25;;;19.99;69.54
57024;BME280;42916;54.346;18.562;2022-08-05T03:48:13;100298.77;;;20.01;69.46
57024;BME280;42916;54.346;18.562;2022-08-05T03:50:54;100302.17;;;20.01;69.36
57024;BME280;42916;54.346;18.562;2022-08-05T03:53:47;100305.83;;;20.02;69.49
57024;BME280;42916;54.346;18.562;2022-08-05T03:56:41;100300.55;;;20.02;69.46
57024;BME280;42916;54.346;18.562;2022-08-05T03:59:09;100305.11;;;20.03;69.30
57024;BME280;42916;54.346;18.562;2022-08-05T04:01:42;100307.54;;;20.05;69.17
57024;BME280;42916;54.346;18.562;2022-08-05T04:04:11;100301.14;;;20.06;69.22
57024;BME280;42916;54.346;18.562;2022-08-05T04:06:39;100303.26;;;20.09;69.18
57024;BME280;42916;54.346;18.562;2022-08-05T04:09:06;100304.02;;;20.10;69.13
57024;BME280;42916;54.346;18.562;2022-08-05T04:11:35;100300.94;;;20.12;68.91
57024;BME280;42916;54.346;18.562;2022-08-05T04:14:03;100300.54;;;20.14;68.79
57024;BME280;42916;54.346;18.562;2022-08-05T04:16:31;100295.35;;;20.16;68.88
57024;BME280;42916;54.346;18.562;2022-08-05T04:18:58;100298.63;;;20.20;68.72
57024;BME280;42916;54.346;18.562;2022-08-05T04:21:24;100296.96;;;20.26;68.75
57024;BME280;42916;54.346;18.562;2022-08-05T04:23:51;100297.75;;;20.31;68.68
57024;BME280;42916;54.346;18.562;2022-08-05T04:26:17;100300.28;;;20.37;68.58
57024;BME280;42916;54.346;18.562;2022-08-05T04:28:44;100303.92;;;20.41;68.37
57024;BME280;42916;54.346;18.562;2022-08-05T04:31:11;100297.39;;;20.45;68.30
57024;BME280;42916;54.346;18.562;2022-08-05T04:33:37;100296.79;;;20.48;68.13
57024;BME280;42916;54.346;18.562;2022-08-05T04:36:04;100300.71;;;20.53;68.19
57024;BME280;42916;54.346;18.562;2022-08-05T04:38:31;100304.46;;;20.57;67.99
57024;BME280;42916;54.346;18.562;2022-08-05T04:40:57;100302.56;;;20.62;67.74
57024;BME280;42916;54.346;18.562;2022-08-05T04:43:24;100304.38;;;20.65;67.45
57024;BME280;42916;54.346;18.562;2022-08-05T04:45:50;100304.98;;;20.70;67.39
57024;BME280;42916;54.346;18.562;2022-08-05T04:48:17;100305.20;;;20.73;67.24
57024;BME280;42916;54.346;18.562;2022-08-05T04:50:46;100303.48;;;20.77;67.00
57024;BME280;42916;54.346;18.562;2022-08-05T04:53:14;100300.84;;;20.82;66.79
57024;BME280;42916;54.346;18.562;2022-08-05T04:55:42;100301.84;;;20.88;66.61
57024;BME280;42916;54.346;18.562;2022-08-05T04:58:11;100304.00;;;20.94;66.34
57024;BME280;42916;54.346;18.562;2022-08-05T05:00:38;100305.39;;;21.02;66.27
57024;BME280;42916;54.346;18.562;2022-08-05T05:03:07;100304.70;;;21.12;66.05
57024;BME280;42916;54.346;18.562;2022-08-05T05:05:34;100306.48;;;21.21;65.70
57024;BME280;42916;54.346;18.562;2022-08-05T05:08:07;100304.45;;;21.29;65.24
57024;BME280;42916;54.346;18.562;2022-08-05T05:10:39;100302.60;;;21.37;64.87
57024;BME280;42916;54.346;18.562;2022-08-05T05:13:12;100301.71;;;21.46;64.50
57024;BME280;42916;54.346;18.562;2022-08-05T05:15:40;100304.84;;;21.55;64.20
57024;BME280;42916;54.346;18.562;2022-08-05T05:18:08;100305.52;;;21.63;63.97
57024;BME280;42916;54.346;18.562;2022-08-05T05:20:34;100307.94;;;21.72;63.60
57024;BME280;42916;54.346;18.562;2022-08-05T05:23:02;100303.86;;;21.80;63.24
57024;BME280;42916;54.346;18.562;2022-08-05T05:25:31;100303.04;;;21.89;62.93
57024;BME280;42916;54.346;18.562;2022-08-05T05:27:58;100301.48;;;21.98;62.52
57024;BME280;42916;54.346;18.562;2022-08-05T05:30:24;100304.20;;;22.07;62.27
57024;BME280;42916;54.346;18.562;2022-08-05T05:32:52;100301.56;;;22.16;62.02
57024;BME280;42916;54.346;18.562;2022-08-05T05:35:18;100304.74;;;22.25;61.73
57024;BME280;42916;54.346;18.562;2022-08-05T05:37:53;100305.59;;;22.33;61.42
57024;BME280;42916;54.346;18.562;2022-08-05T05:40:22;100305.52;;;22.42;61.17
57024;BME280;42916;54.346;18.562;2022-08-05T05:42:50;100305.21;;;22.51;61.01
57024;BME280;42916;54.346;18.562;2022-08-05T05:45:17;100303.73;;;22.58;60.74
57024;BME280;42916;54.346;18.562;2022-08-05T05:47:44;100303.55;;;22.64;60.51
57024;BME280;42916;54.346;18.562;2022-08-05T05:50:13;100306.84;;;22.69;60.35
57024;BME280;42916;54.346;18.562;2022-08-05T05:52:41;100301.13;;;22.76;60.21
57024;BME280;42916;54.346;18.562;2022-08-05T05:55:10;100303.58;;;22.84;59.92
57024;BME280;42916;54.346;18.562;2022-08-05T05:57:38;100303.52;;;22.91;59.69
57024;BME280;42916;54.346;18.562;2022-08-05T06:00:08;100307.64;;;22.99;59.22
57024;BME280;42916;54.346;18.562;2022-08-05T06:02:41;100310.08;;;23.04;59.04
57024;BME280;42916;54.346;18.562;2022-08-05T06:05:09;100309.21;;;23.10;58.94
57024;BME280;42916;54.346;18.562;2022-08-05T06:07:37;100309.21;;;23.20;58.87
57024;BME280;42916;54.346;18.562;2022-08-05T06:10:05;100309.17;;;23.29;58.71
57024;BME280;42916;54.346;18.562;2022-08-05T06:12:33;100310.55;;;23.38;58.53
57024;BME280;42916;54.346;18.562;2022-08-05T06:15:01;100307.23;;;23.45;58.34
57024;BME280;42916;54.346;18.562;2022-08-05T06:17:27;100309.50;;;23.53;58.17
57024;BME280;42916;54.346;18.562;2022-08-05T06:19:54;100310.19;;;23.62;57.92
57024;BME280;42916;54.346;18.562;2022-08-05T06:22:25;100309.73;;;23.70;57.59
57024;BME280;42916;54.346;18.562;2022-08-05T06:24:52;100310.92;;;23.77;57.19
57024;BME280;42916;54.346;18.562;2022-08-05T06:27:19;100309.83;;;23.85;57.01
57024;BME280;42916;54.346;18.562;2022-08-05T06:29:46;100306.36;;;23.93;56.82
57024;BME280;42916;54.346;18.562;2022-08-05T06:32:13;100303.20;;;24.01;56.54
57024;BME280;42916;54.346;18.562;2022-08-05T06:34:39;100302.52;;;24.10;56.07
57024;BME280;42916;54.346;18.562;2022-08-05T06:37:06;100298.52;;;24.18;55.61
57024;BME280;42916;54.346;18.562;2022-08-05T06:39:33;100300.83;;;24.27;55.36
57024;BME280;42916;54.346;18.562;2022-08-05T06:42:01;100301.98;;;24.34;55.00
57024;BME280;42916;54.346;18.562;2022-08-05T06:44:28;100293.80;;;24.41;54.72
57024;BME280;42916;54.346;18.562;2022-08-05T06:46:56;100292.36;;;24.52;54.60
57024;BME280;42916;54.346;18.562;2022-08-05T06:49:23;100295.58;;;24.63;54.42
57024;BME280;42916;54.346;18.562;2022-08-05T06:51:51;100297.67;;;24.73;53.97
57024;BME280;42916;54.346;18.562;2022-08-05T06:54:17;100290.34;;;24.80;53.61
57024;BME280;42916;54.346;18.562;2022-08-05T06:56:44;100290.66;;;24.90;53.44
57024;BME280;42916;54.346;18.562;2022-08-05T06:59:11;100288.44;;;24.98;53.16
57024;BME280;42916;54.346;18.562;2022-08-05T07:01:39;100286.27;;;25.06;52.73
57024;BME280;42916;54.346;18.562;2022-08-05T07:04:06;100290.91;;;25.10;52.35
57024;BME280;42916;54.346;18.562;2022-08-05T07:06:33;100286.34;;;25.18;52.05
57024;BME280;42916;54.346;18.562;2022-08-05T07:08:59;100289.55;;;25.25;51.65
57024;BME280;42916;54.346;18.562;2022-08-05T07:11:26;100286.09;;;25.32;51.45
57024;BME280;42916;54.346;18.562;2022-08-05T07:13:54;100284.35;;;25.38;51.06
57024;BME280;42916;54.346;18.562;2022-08-05T07:16:39;100272.95;;;25.44;51.05
57024;BME280;42916;54.346;18.562;2022-08-05T07:21:46;100272.58;;;25.54;50.27
57024;BME280;42916;54.346;18.562;2022-08-05T07:24:14;100274.16;;;25.61;49.98
57024;BME280;42916;54.346;18.562;2022-08-05T07:26:42;100276.61;;;25.66;49.74
57024;BME280;42916;54.346;18.562;2022-08-05T07:29:09;100274.07;;;25.73;49.25
57024;BME280;42916;54.346;18.562;2022-08-05T07:31:36;100272.08;;;25.80;48.87
57024;BME280;42916;54.346;18.562;2022-08-05T07:34:03;100269.64;;;25.88;48.55
57024;BME280;42916;54.346;18.562;2022-08-05T07:36:30;100268.34;;;25.96;48.55
57024;BME280;42916;54.346;18.562;2022-08-05T07:39:00;100265.27;;;26.08;48.50
57024;BME280;42916;54.346;18.562;2022-08-05T07:41:26;100265.76;;;26.19;47.83
57024;BME280;42916;54.346;18.562;2022-08-05T07:43:54;100263.73;;;26.28;47.55
57024;BME280;42916;54.346;18.562;2022-08-05T07:46:22;100268.23;;;26.35;46.83
57024;BME280;42916;54.346;18.562;2022-08-05T07:48:48;100270.94;;;26.41;45.98
57024;BME280;42916;54.346;18.562;2022-08-05T07:51:16;100272.58;;;26.44;46.03
57024;BME280;42916;54.346;18.562;2022-08-05T07:53:43;100266.21;;;26.49;45.97
57024;BME280;42916;54.346;18.562;2022-08-05T07:56:09;100265.50;;;26.56;45.87
57024;BME280;42916;54.346;18.562;2022-08-05T07:58:36;100268.19;;;26.65;45.74
57024;BME280;42916;54.346;18.562;2022-08-05T08:01:03;100269.80;;;26.75;45.52
57024;BME280;42916;54.346;18.562;2022-08-05T08:03:29;100267.45;;;26.85;45.23
57024;BME280;42916;54.346;18.562;2022-08-05T08:05:56;100267.29;;;26.94;45.14
57024;BME280;42916;54.346;18.562;2022-08-05T08:08:23;100267.22;;;27.02;44.41
57024;BME280;42916;54.346;18.562;2022-08-05T08:10:49;100267.33;;;27.13;44.51
57024;BME280;42916;54.346;18.562;2022-08-05T08:13:16;100265.59;;;27.23;43.97
57024;BME280;42916;54.346;18.562;2022-08-05T08:15:43;100268.77;;;27.34;43.88
57024;BME280;42916;54.346;18.562;2022-08-05T08:18:09;100265.80;;;27.43;43.65
57024;BME280;42916;54.346;18.562;2022-08-05T08:20:36;100267.27;;;27.51;43.26
57024;BME280;42916;54.346;18.562;2022-08-05T08:23:03;100264.06;;;27.58;42.86
57024;BME280;42916;54.346;18.562;2022-08-05T08:25:29;100258.45;;;27.68;42.53
57024;BME280;42916;54.346;18.562;2022-08-05T08:27:56;100259.68;;;27.80;42.17
57024;BME280;42916;54.346;18.562;2022-08-05T08:30:24;100255.98;;;27.88;41.65
57024;BME280;42916;54.346;18.562;2022-08-05T08:32:51;100250.95;;;27.97;41.39
57024;BME280;42916;54.346;18.562;2022-08-05T08:35:18;100253.55;;;28.06;41.11
57024;BME280;42916;54.346;18.562;2022-08-05T08:37:44;100254.38;;;28.13;40.43
57024;BME280;42916;54.346;18.562;2022-08-05T08:40:11;100252.04;;;28.13;39.97
57024;BME280;42916;54.346;18.562;2022-08-05T08:42:39;100248.89;;;28.15;40.10
57024;BME280;42916;54.346;18.562;2022-08-05T08:45:07;100253.48;;;28.19;39.94
57024;BME280;42916;54.346;18.562;2022-08-05T08:47:35;100251.46;;;28.24;39.80
57024;BME280;42916;54.346;18.562;2022-08-05T08:50:02;100245.54;;;28.30;39.40
57024;BME280;42916;54.346;18.562;2022-08-05T08:52:31;100248.34;;;28.35;39.45
57024;BME280;42916;54.346;18.562;2022-08-05T08:54:59;100247.79;;;28.36;39.34
57024;BME280;42916;54.346;18.562;2022-08-05T08:57:26;100246.59;;;28.36;38.64
57024;BME280;42916;54.346;18.562;2022-08-05T08:59:53;100241.41;;;28.37;38.65
57024;BME280;42916;54.346;18.562;2022-08-05T09:02:20;100234.77;;;28.45;38.11
57024;BME280;42916;54.346;18.562;2022-08-05T09:04:48;100239.66;;;28.52;37.98
57024;BME280;42916;54.346;18.562;2022-08-05T09:07:14;100237.27;;;28.57;37.56
57024;BME280;42916;54.346;18.562;2022-08-05T09:09:41;100237.89;;;28.61;37.47
57024;BME280;42916;54.346;18.562;2022-08-05T09:12:08;100238.89;;;28.65;37.26
57024;BME280;42916;54.346;18.562;2022-08-05T09:14:35;100236.89;;;28.72;37.39
57024;BME280;42916;54.346;18.562;2022-08-05T09:17:05;100231.94;;;28.81;37.48
57024;BME280;42916;54.346;18.562;2022-08-05T09:19:32;100234.02;;;28.87;36.81
57024;BME280;42916;54.346;18.562;2022-08-05T09:21:59;100227.40;;;28.91;36.62
57024;BME280;42916;54.346;18.562;2022-08-05T09:24:25;100232.26;;;28.96;36.60
57024;BME280;42916;54.346;18.562;2022-08-05T09:26:56;100231.21;;;29.04;36.36
57024;BME280;42916;54.346;18.562;2022-08-05T09:29:43;100229.02;;;29.15;36.07
57024;BME280;42916;54.346;18.562;2022-08-05T09:32:13;100230.52;;;29.22;35.78
57024;BME280;42916;54.346;18.562;2022-08-05T09:34:52;100220.00;;;29.27;35.82
57024;BME280;42916;54.346;18.562;2022-08-05T09:37:24;100218.70;;;29.34;35.67
57024;BME280;42916;54.346;18.562;2022-08-05T09:39:50;100214.36;;;29.43;35.62
57024;BME280;42916;54.346;18.562;2022-08-05T09:42:19;100219.08;;;29.53;35.25
57024;BME280;42916;54.346;18.562;2022-08-05T09:44:48;100220.02;;;29.61;35.05
57024;BME280;42916;54.346;18.562;2022-08-05T09:47:17;100215.55;;;29.64;34.81
57024;BME280;42916;54.346;18.562;2022-08-05T09:49:49;100210.69;;;29.66;34.38
57024;BME280;42916;54.346;18.562;2022-08-05T09:52:24;100201.85;;;29.74;34.11
57024;BME280;42916;54.346;18.562;2022-08-05T09:55:04;100200.87;;;29.94;33.95
57024;BME280;42916;54.346;18.562;2022-08-05T09:57:35;100201.30;;;30.00;33.77
57024;BME280;42916;54.346;18.562;2022-08-05T10:00:17;100201.61;;;30.01;33.82
57024;BME280;42916;54.346;18.562;2022-08-05T10:02:46;100196.55;;;30.11;34.12
57024;BME280;42916;54.346;18.562;2022-08-05T10:05:19;100189.59;;;30.16;33.89
57024;BME280;42916;54.346;18.562;2022-08-05T10:10:21;100179.06;;;30.29;33.71
57024;BME280;42916;54.346;18.562;2022-08-05T10:12:50;100183.45;;;30.39;33.71
57024;BME280;42916;54.346;18.562;2022-08-05T10:18:09;100185.52;;;30.64;33.52
57024;BME280;42916;54.346;18.562;2022-08-05T10:20:40;100183.05;;;30.76;33.18
57024;BME280;42916;54.346;18.562;2022-08-05T10:23:17;100180.66;;;30.86;32.97
57024;BME280;42916;54.346;18.562;2022-08-05T10:25:44;100173.04;;;30.87;33.01
57024;BME280;42916;54.346;18.562;2022-08-05T10:28:11;100172.34;;;30.92;33.33
57024;BME280;42916;54.346;18.562;2022-08-05T10:30:39;100164.02;;;30.98;33.27
57024;BME280;42916;54.346;18.562;2022-08-05T10:33:05;100163.70;;;31.01;32.76
57024;BME280;42916;54.346;18.562;2022-08-05T10:35:34;100163.61;;;31.06;31.90
57024;BME280;42916;54.346;18.562;2022-08-05T10:38:02;100166.26;;;31.13;32.37
57024;BME280;42916;54.346;18.562;2022-08-05T10:46:22;100153.64;;;31.31;32.25
57024;BME280;42916;54.346;18.562;2022-08-05T10:48:55;100152.91;;;31.40;32.42
57024;BME280;42916;54.346;18.562;2022-08-05T10:54:13;100150.73;;;31.64;32.01
57024;BME280;42916;54.346;18.562;2022-08-05T10:59:15;100146.30;;;31.85;31.31
57024;BME280;42916;54.346;18.562;2022-08-05T11:01:42;100149.17;;;31.91;31.11
57024;BME280;42916;54.346;18.562;2022-08-05T11:07:13;100145.35;;;32.08;31.14
57024;BME280;42916;54.346;18.562;2022-08-05T11:09:43;100146.63;;;32.13;30.40
57024;BME280;42916;54.346;18.562;2022-08-05T11:15:19;100135.64;;;32.24;30.06
57024;BME280;42916;54.346;18.562;2022-08-05T11:23:41;100134.05;;;32.49;29.88
57024;BME280;42916;54.346;18.562;2022-08-05T11:26:14;100126.96;;;32.65;29.95
57024;BME280;42916;54.346;18.562;2022-08-05T11:28:48;100119.06;;;32.78;29.42
57024;BME280;42916;54.346;18.562;2022-08-05T11:36:39;100119.64;;;33.04;29.34
57024;BME280;42916;54.346;18.562;2022-08-05T11:39:07;100116.79;;;33.20;29.25
57024;BME280;42916;54.346;18.562;2022-08-05T11:41:34;100117.45;;;33.34;28.77
57024;BME280;42916;54.346;18.562;2022-08-05T11:44:06;100113.58;;;33.50;29.11
57024;BME280;42916;54.346;18.562;2022-08-05T11:46:37;100112.58;;;33.60;28.57
57024;BME280;42916;54.346;18.562;2022-08-05T11:49:06;100103.35;;;33.72;28.69
57024;BME280;42916;54.346;18.562;2022-08-05T11:51:33;100102.48;;;33.92;28.58
57024;BME280;42916;54.346;18.562;2022-08-05T11:54:00;100110.97;;;34.08;28.06
57024;BME280;42916;54.346;18.562;2022-08-05T11:56:50;100111.36;;;34.13;28.00
57024;BME280;42916;54.346;18.562;2022-08-05T11:59:22;100106.57;;;34.25;28.11
57024;BME280;42916;54.346;18.562;2022-08-05T12:04:23;100102.63;;;34.56;27.85
57024;BME280;42916;54.346;18.562;2022-08-05T12:06:51;100098.02;;;34.74;27.70
57024;BME280;42916;54.346;18.562;2022-08-05T12:09:22;100100.35;;;34.84;26.98
57024;BME280;42916;54.346;18.562;2022-08-05T12:11:49;100087.11;;;34.94;26.59
57024;BME280;42916;54.346;18.562;2022-08-05T12:14:16;100096.39;;;35.02;26.46
57024;BME280;42916;54.346;18.562;2022-08-05T12:16:44;100091.70;;;35.22;26.56
57024;BME280;42916;54.346;18.562;2022-08-05T12:19:14;100089.41;;;35.49;26.45
57024;BME280;42916;54.346;18.562;2022-08-05T12:21:49;100090.33;;;35.64;25.68
57024;BME280;42916;54.346;18.562;2022-08-05T12:24:18;100087.52;;;35.77;25.45
57024;BME280;42916;54.346;18.562;2022-08-05T12:26:50;100080.39;;;35.88;25.45
57024;BME280;42916;54.346;18.562;2022-08-05T12:29:18;100075.08;;;35.98;25.47
57024;BME280;42916;54.346;18.562;2022-08-05T12:31:47;100069.63;;;36.11;25.24
57024;BME280;42916;54.346;18.562;2022-08-05T12:34:16;100066.27;;;36.28;25.26
57024;BME280;42916;54.346;18.562;2022-08-05T12:36:45;100072.16;;;36.32;24.78
57024;BME280;42916;54.346;18.562;2022-08-05T12:39:12;100064.75;;;36.44;24.67
57024;BME280;42916;54.346;18.562;2022-08-05T12:41:40;100073.20;;;36.66;24.58
57024;BME280;42916;54.346;18.562;2022-08-05T12:44:07;100073.23;;;36.88;24.33
57024;BME280;42916;54.346;18.562;2022-08-05T12:46:36;100075.30;;;36.98;24.29
57024;BME280;42916;54.346;18.562;2022-08-05T12:49:11;100074.95;;;37.30;24.58
57024;BME280;42916;54.346;18.562;2022-08-05T12:51:44;100080.64;;;37.53;23.94
57024;BME280;42916;54.346;18.562;2022-08-05T12:54:21;100074.77;;;37.66;23.83
57024;BME280;42916;54.346;18.562;2022-08-05T12:56:49;100073.39;;;37.66;23.50
57024;BME280;42916;54.346;18.562;2022-08-05T12:59:22;100062.73;;;37.53;23.58
57024;BME280;42916;54.346;18.562;2022-08-05T13:02:06;100060.68;;;37.63;23.48
57024;BME280;42916;54.346;18.562;2022-08-05T13:04:36;100065.50;;;37.73;22.77
57024;BME280;42916;54.346;18.562;2022-08-05T13:07:11;100065.66;;;37.70;22.79
57024;BME280;42916;54.346;18.562;2022-08-05T13:09:40;100057.70;;;37.92;22.97
57024;BME280;42916;54.346;18.562;2022-08-05T13:12:10;100058.44;;;38.02;22.69
57024;BME280;42916;54.346;18.562;2022-08-05T13:14:39;100058.25;;;38.03;22.51
57024;BME280;42916;54.346;18.562;2022-08-05T13:17:19;100053.86;;;38.14;22.79
57024;BME280;42916;54.346;18.562;2022-08-05T13:20:06;100059.30;;;38.48;22.80
57024;BME280;42916;54.346;18.562;2022-08-05T13:22:37;100054.14;;;38.74;22.25
57024;BME280;42916;54.346;18.562;2022-08-05T13:25:07;100053.92;;;38.82;21.84
57024;BME280;42916;54.346;18.562;2022-08-05T13:30:03;100039.88;;;39.09;21.49
57024;BME280;42916;54.346;18.562;2022-08-05T13:32:32;100040.44;;;39.29;21.30
57024;BME280;42916;54.346;18.562;2022-08-05T13:34:58;100041.65;;;39.22;20.83
57024;BME280;42916;54.346;18.562;2022-08-05T13:37:25;100032.84;;;39.23;20.90
57024;BME280;42916;54.346;18.562;2022-08-05T13:39:52;100037.13;;;39.30;20.40
57024;BME280;42916;54.346;18.562;2022-08-05T13:42:20;100035.33;;;39.29;20.51
57024;BME280;42916;54.346;18.562;2022-08-05T13:44:55;100031.23;;;39.25;20.38